Time,TemperatureF,DewpointF,PressureIn,WindDirection,WindDirectionDegrees,WindSpeedMPH,WindSpeedGustMPH,Humidity,HourlyPrecipIn,Conditions,Clouds,dailyrainin,SoftwareType,DateUTC
2013-06-23 00:12:00,68.9,64.9,29.65,ESE,112,0.0,-999.0,87,-99.99,,,0.00,Acu-Link.com,2013-06-23 05:12:00,
2013-06-23 00:27:00,69.3,65.3,29.62,SE,135,1.1,-999.0,87,-99.99,,,0.00,Acu-Link.com,2013-06-23 05:27:00,
2013-06-23 00:43:00,69.3,65.3,29.63,NE,45,1.1,-999.0,87,-99.99,,,0.00,Acu-Link.com,2013-06-23 05:43:00,
2013-06-23 00:58:00,69.6,65.2,29.62,NNE,22,2.2,-999.0,86,-99.99,,,0.00,Acu-Link.com,2013-06-23 05:58:00,
2013-06-23 01:13:00,69.6,65.2,29.62,WNW,292,2.7,-999.0,86,-99.99,,,0.00,Acu-Link.com,2013-06-23 06:13:00,
2013-06-23 01:28:00,69.6,65.2,29.63,NNE,22,3.7,-999.0,86,-99.99,,,0.00,Acu-Link.com,2013-06-23 06:28:00,
2013-06-23 01:43:00,69.6,65.2,29.64,NE,45,2.2,-999.0,86,-99.99,,,0.00,Acu-Link.com,2013-06-23 06:43:00,
2013-06-23 01:59:00,69.6,65.6,29.64,ESE,112,3.2,-999.0,87,-99.99,,,0.00,Acu-Link.com,2013-06-23 06:59:00,
2013-06-23 02:14:00,68.9,65.5,29.64,NE,45,1.1,-999.0,89,-99.99,,,0.01,Acu-Link.com,2013-06-23 07:14:00,
2013-06-23 02:29:00,68.7,65.6,29.64,East,90,1.7,-999.0,90,-99.99,,,0.04,Acu-Link.com,2013-06-23 07:29:00,
2013-06-23 02:44:00,68.4,65.3,29.60,South,180,2.2,-999.0,90,-99.99,,,0.12,Acu-Link.com,2013-06-23 07:44:00,
2013-06-23 02:59:00,68.5,65.4,29.60,SE,135,1.7,-999.0,90,-99.99,,,0.14,Acu-Link.com,2013-06-23 07:59:00,
2013-06-23 03:15:00,68.5,65.4,29.59,NE,45,1.7,-999.0,90,-99.99,,,0.16,Acu-Link.com,2013-06-23 08:15:00,
2013-06-23 03:30:00,68.5,65.4,29.58,SSE,157,2.2,-999.0,90,-99.99,,,0.17,Acu-Link.com,2013-06-23 08:30:00,
2013-06-23 03:45:00,68.5,65.4,29.56,SSE,157,1.7,-999.0,90,-99.99,,,0.19,Acu-Link.com,2013-06-23 08:45:00,
2013-06-23 04:01:00,68.5,65.4,29.57,ESE,112,3.2,-999.0,90,-99.99,,,0.21,Acu-Link.com,2013-06-23 09:01:00,
2013-06-23 04:16:00,68.4,65.3,29.63,WNW,292,1.7,-999.0,90,-99.99,,,0.25,Acu-Link.com,2013-06-23 09:16:00,
2013-06-23 04:31:00,67.5,64.8,29.60,NE,45,0.0,-999.0,91,-99.99,,,0.66,Acu-Link.com,2013-06-23 09:31:00,
2013-06-23 04:46:00,66.7,64.0,29.59,West,270,1.1,-999.0,91,-99.99,,,0.77,Acu-Link.com,2013-06-23 09:46:00,
2013-06-23 05:01:00,66.9,64.2,29.60,NE,45,0.0,-999.0,91,-99.99,,,0.91,Acu-Link.com,2013-06-23 10:01:00,
2013-06-23 05:17:00,66.2,63.5,29.58,SW,225,0.0,-999.0,91,-99.99,,,0.94,Acu-Link.com,2013-06-23 10:17:00,
2013-06-23 05:32:00,66.2,63.5,29.53,North,0,3.2,-999.0,91,-99.99,,,0.96,Acu-Link.com,2013-06-23 10:32:00,
2013-06-23 05:47:00,64.2,61.5,29.45,NNW,337,2.7,-999.0,91,-99.99,,,0.97,Acu-Link.com,2013-06-23 10:47:00,
2013-06-23 06:02:00,63.3,60.6,29.39,NNW,337,4.7,-999.0,91,-99.99,,,0.98,Acu-Link.com,2013-06-23 11:02:00,
2013-06-23 06:17:00,63.1,60.4,29.50,SSE,157,2.2,-999.0,91,-99.99,,,0.98,Acu-Link.com,2013-06-23 11:17:00,
2013-06-23 06:33:00,63.3,60.6,29.57,South,180,2.7,-999.0,91,-99.99,,,0.98,Acu-Link.com,2013-06-23 11:33:00,
2013-06-23 06:48:00,63.5,60.8,29.55,SW,225,1.1,-999.0,91,-99.99,,,0.98,Acu-Link.com,2013-06-23 11:48:00,
2013-06-23 07:03:00,63.5,60.8,29.56,SW,225,2.2,-999.0,91,-99.99,,,0.98,Acu-Link.com,2013-06-23 12:03:00,
2013-06-23 07:18:00,63.7,61.0,29.55,South,180,2.2,-999.0,91,-99.99,,,0.98,Acu-Link.com,2013-06-23 12:18:00,
2013-06-23 07:33:00,64.0,61.3,29.57,SSW,202,2.2,-999.0,91,-99.99,,,0.98,Acu-Link.com,2013-06-23 12:33:00,
2013-06-23 07:48:00,64.8,62.4,29.56,SSW,202,2.7,-999.0,92,-99.99,,,0.98,Acu-Link.com,2013-06-23 12:48:00,
2013-06-23 08:04:00,65.1,62.7,29.54,East,90,0.0,-999.0,92,-99.99,,,0.98,Acu-Link.com,2013-06-23 13:04:00,
2013-06-23 08:19:00,65.5,63.1,29.55,West,270,1.1,-999.0,92,-99.99,,,0.98,Acu-Link.com,2013-06-23 13:19:00,
2013-06-23 08:34:00,65.5,63.1,29.55,SW,225,2.2,-999.0,92,-99.99,,,0.98,Acu-Link.com,2013-06-23 13:34:00,
2013-06-23 08:49:00,66.0,63.6,29.55,East,90,2.2,-999.0,92,-99.99,,,0.98,Acu-Link.com,2013-06-23 13:49:00,
2013-06-23 09:04:00,66.9,64.5,29.57,West,270,2.2,-999.0,92,-99.99,,,0.98,Acu-Link.com,2013-06-23 14:04:00,
2013-06-23 09:20:00,67.5,64.1,29.57,WSW,247,3.2,-999.0,89,-99.99,,,0.98,Acu-Link.com,2013-06-23 14:20:00,
2013-06-23 09:35:00,67.8,64.1,29.58,SE,135,3.7,-999.0,88,-99.99,,,0.98,Acu-Link.com,2013-06-23 14:35:00,
2013-06-23 09:50:00,67.8,63.8,29.57,ENE,67,1.7,-999.0,87,-99.99,,,0.98,Acu-Link.com,2013-06-23 14:50:00,
2013-06-23 10:05:00,68.2,63.8,29.58,SE,135,3.2,-999.0,86,-99.99,,,0.98,Acu-Link.com,2013-06-23 15:05:00,
2013-06-23 10:30:00,68.9,64.5,29.58,ESE,112,2.2,-999.0,86,-99.99,,,0.98,Acu-Link.com,2013-06-23 15:30:00,
2013-06-23 10:45:00,70.0,64.9,29.58,SSE,157,4.7,-999.0,84,-99.99,,,0.98,Acu-Link.com,2013-06-23 15:45:00,
2013-06-23 11:00:00,70.9,65.1,29.59,SSE,157,4.2,-999.0,82,-99.99,,,0.98,Acu-Link.com,2013-06-23 16:00:00,
2013-06-23 11:15:00,71.4,65.3,29.60,SSW,202,2.7,-999.0,81,-99.99,,,0.98,Acu-Link.com,2013-06-23 16:15:00,
2013-06-23 11:31:00,72.5,65.6,29.60,SSW,202,1.1,-999.0,79,-99.99,,,0.98,Acu-Link.com,2013-06-23 16:31:00,
2013-06-23 11:46:00,73.2,65.9,29.60,West,270,3.7,-999.0,78,-99.99,,,0.98,Acu-Link.com,2013-06-23 16:46:00,
2013-06-23 12:01:00,73.4,66.5,29.61,ENE,67,4.2,-999.0,79,-99.99,,,0.98,Acu-Link.com,2013-06-23 17:01:00,
2013-06-23 12:16:00,73.6,66.3,29.61,SW,225,1.7,-999.0,78,-99.99,,,0.98,Acu-Link.com,2013-06-23 17:16:00,
2013-06-23 12:31:00,74.1,66.0,29.62,West,270,5.3,-999.0,76,-99.99,,,0.98,Acu-Link.com,2013-06-23 17:31:00,
2013-06-23 12:46:00,74.8,67.1,29.62,SSE,157,1.7,-999.0,77,-99.99,,,0.98,Acu-Link.com,2013-06-23 17:46:00,
2013-06-23 13:01:00,74.7,67.0,29.62,SE,135,3.2,-999.0,77,-99.99,,,0.98,Acu-Link.com,2013-06-23 18:01:00,
2013-06-23 13:17:00,74.7,66.6,29.64,NNW,337,5.8,-999.0,76,-99.99,,,0.98,Acu-Link.com,2013-06-23 18:17:00,
2013-06-23 13:32:00,75.0,66.9,29.63,WSW,247,4.7,-999.0,76,-99.99,,,0.98,Acu-Link.com,2013-06-23 18:32:00,
2013-06-23 13:47:00,75.9,67.0,29.64,ENE,67,1.7,-999.0,74,-99.99,,,0.98,Acu-Link.com,2013-06-23 18:47:00,
2013-06-23 14:02:00,75.6,66.7,29.65,SW,225,3.7,-999.0,74,-99.99,,,0.98,Acu-Link.com,2013-06-23 19:02:00,
2013-06-23 14:17:00,75.6,67.5,29.65,NW,315,1.7,-999.0,76,-99.99,,,0.98,Acu-Link.com,2013-06-23 19:17:00,
2013-06-23 14:33:00,75.4,66.9,29.65,West,270,1.7,-999.0,75,-99.99,,,0.98,Acu-Link.com,2013-06-23 19:33:00,
2013-06-23 14:48:00,75.9,67.0,29.64,WNW,292,2.7,-999.0,74,-99.99,,,0.98,Acu-Link.com,2013-06-23 19:48:00,
2013-06-23 15:03:00,75.7,66.0,29.65,ESE,112,4.7,-999.0,72,-99.99,,,0.98,Acu-Link.com,2013-06-23 20:03:00,
2013-06-23 15:18:00,76.1,66.0,29.64,ENE,67,1.1,-999.0,71,-99.99,,,0.98,Acu-Link.com,2013-06-23 20:18:00,
2013-06-23 15:34:00,77.0,66.4,29.65,West,270,1.7,-999.0,70,-99.99,,,0.98,Acu-Link.com,2013-06-23 20:34:00,
2013-06-23 15:49:00,77.0,66.4,29.65,SW,225,2.2,-999.0,70,-99.99,,,0.98,Acu-Link.com,2013-06-23 20:49:00,
2013-06-23 16:04:00,77.5,65.7,29.66,NE,45,3.2,-999.0,67,-99.99,,,0.98,Acu-Link.com,2013-06-23 21:04:00,
2013-06-23 16:19:00,77.0,66.4,29.66,SW,225,2.2,-999.0,70,-99.99,,,0.98,Acu-Link.com,2013-06-23 21:19:00,
2013-06-23 16:34:00,77.7,65.9,29.66,NNE,22,1.1,-999.0,67,-99.99,,,0.98,Acu-Link.com,2013-06-23 21:34:00,
2013-06-23 16:49:00,78.3,65.5,29.65,WSW,247,2.7,-999.0,65,-99.99,,,0.98,Acu-Link.com,2013-06-23 21:49:00,
2013-06-23 17:04:00,78.8,65.6,29.65,South,180,2.7,-999.0,64,-99.99,,,0.98,Acu-Link.com,2013-06-23 22:04:00,
2013-06-23 17:19:00,78.3,65.1,29.66,WSW,247,2.7,-999.0,64,-99.99,,,0.98,Acu-Link.com,2013-06-23 22:19:00,
2013-06-23 17:35:00,77.7,64.5,29.66,ENE,67,0.0,-999.0,64,-99.99,,,0.98,Acu-Link.com,2013-06-23 22:35:00,
2013-06-23 17:50:00,77.9,63.3,29.66,SSE,157,2.2,-999.0,61,-99.99,,,0.98,Acu-Link.com,2013-06-23 22:50:00,
2013-06-23 18:05:00,77.7,64.5,29.66,ESE,112,0.0,-999.0,64,-99.99,,,0.98,Acu-Link.com,2013-06-23 23:05:00,
2013-06-23 18:20:00,77.4,63.3,29.67,NW,315,1.1,-999.0,62,-99.99,,,0.98,Acu-Link.com,2013-06-23 23:20:00,
2013-06-23 18:35:00,76.6,63.5,29.67,NW,315,1.1,-999.0,64,-99.99,,,0.98,Acu-Link.com,2013-06-23 23:35:00,
2013-06-23 18:50:00,75.9,62.8,29.68,West,270,1.7,-999.0,64,-99.99,,,0.98,Acu-Link.com,2013-06-23 23:50:00,
2013-06-23 19:06:00,75.9,63.7,29.67,West,270,3.2,-999.0,66,-99.99,,,0.98,Acu-Link.com,2013-06-24 00:06:00,
2013-06-23 19:21:00,75.7,63.5,29.68,WNW,292,1.1,-999.0,66,-99.99,,,0.98,Acu-Link.com,2013-06-24 00:21:00,
2013-06-23 19:36:00,75.2,63.0,29.69,WNW,292,1.7,-999.0,66,-99.99,,,0.98,Acu-Link.com,2013-06-24 00:36:00,
2013-06-23 19:51:00,74.5,63.6,29.70,SW,225,0.0,-999.0,69,-99.99,,,0.98,Acu-Link.com,2013-06-24 00:51:00,
2013-06-23 20:06:00,73.8,63.8,29.70,NW,315,0.0,-999.0,71,-99.99,,,0.98,Acu-Link.com,2013-06-24 01:06:00,
2013-06-23 20:22:00,73.0,63.0,29.70,WSW,247,0.0,-999.0,71,-99.99,,,0.98,Acu-Link.com,2013-06-24 01:22:00,
2013-06-23 20:37:00,72.0,63.2,29.71,ESE,112,0.0,-999.0,74,-99.99,,,0.98,Acu-Link.com,2013-06-24 01:37:00,
2013-06-23 20:52:00,70.9,62.9,29.70,SW,225,0.0,-999.0,76,-99.99,,,0.98,Acu-Link.com,2013-06-24 01:52:00,
2013-06-23 21:07:00,69.8,62.3,29.71,SE,135,0.0,-999.0,77,-99.99,,,0.98,Acu-Link.com,2013-06-24 02:07:00,
2013-06-23 21:22:00,68.5,61.4,29.70,ESE,112,0.0,-999.0,78,-99.99,,,0.98,Acu-Link.com,2013-06-24 02:22:00,
2013-06-23 21:38:00,67.8,60.7,29.70,SW,225,0.0,-999.0,78,-99.99,,,0.98,Acu-Link.com,2013-06-24 02:38:00,
2013-06-23 21:53:00,66.9,60.2,29.71,East,90,0.0,-999.0,79,-99.99,,,0.98,Acu-Link.com,2013-06-24 02:53:00,
2013-06-23 22:08:00,66.2,59.8,29.71,East,90,0.0,-999.0,80,-99.99,,,0.98,Acu-Link.com,2013-06-24 03:08:00,
2013-06-23 22:23:00,65.5,59.5,29.72,ESE,112,0.0,-999.0,81,-99.99,,,0.98,Acu-Link.com,2013-06-24 03:23:00,
2013-06-23 22:38:00,65.3,59.7,29.73,ESE,112,0.0,-999.0,82,-99.99,,,0.98,Acu-Link.com,2013-06-24 03:38:00,
2013-06-23 22:53:00,64.6,59.3,29.73,SE,135,0.0,-999.0,83,-99.99,,,0.98,Acu-Link.com,2013-06-24 03:53:00,
2013-06-23 23:09:00,64.0,59.1,29.73,ESE,112,0.0,-999.0,84,-99.99,,,0.98,Acu-Link.com,2013-06-24 04:09:00,
2013-06-23 23:24:00,63.7,59.1,29.73,East,90,0.0,-999.0,85,-99.99,,,0.98,Acu-Link.com,2013-06-24 04:24:00,
2013-06-23 23:39:00,63.5,58.9,29.73,ESE,112,0.0,-999.0,85,-99.99,,,0.98,Acu-Link.com,2013-06-24 04:39:00,
2013-06-23 23:55:00,63.5,58.9,29.74,ESE,112,1.7,-999.0,85,-99.99,,,0.98,Acu-Link.com,2013-06-24 04:55:00,